createdAt,value
2022-08-22T00:00:23.269Z,71.15
2022-08-22T00:06:16.954Z,71.47
2022-08-22T00:09:10.463Z,71.50
2022-08-22T00:11:48.397Z,71.81
2022-08-22T00:14:38.412Z,72.09
2022-08-22T00:17:30.094Z,72.17
2022-08-22T00:20:20.116Z,72.29
2022-08-22T00:23:05.888Z,72.54
2022-08-22T00:25:55.322Z,72.49
2022-08-22T00:28:49.197Z,72.54
2022-08-22T00:31:29.164Z,72.63
2022-08-22T00:34:07.639Z,72.88
2022-08-22T00:37:00.249Z,72.95
2022-08-22T00:39:26.980Z,72.96
2022-08-22T00:42:12.798Z,73.09
2022-08-22T00:44:54.545Z,73.10
2022-08-22T00:47:40.044Z,73.15
2022-08-22T00:50:27.619Z,73.35
2022-08-22T00:53:17.850Z,73.33
2022-08-22T00:56:01.340Z,73.22
2022-08-22T00:58:33.948Z,73.23
2022-08-22T01:01:07.260Z,73.17
2022-08-22T01:03:52.628Z,73.14
2022-08-22T01:06:25.276Z,73.27
2022-08-22T01:09:04.310Z,73.28
2022-08-22T01:11:38.525Z,73.44
2022-08-22T01:14:34.622Z,73.51
2022-08-22T01:17:21.105Z,73.44
2022-08-22T01:19:50.524Z,73.61
2022-08-22T01:22:48.623Z,73.88
2022-08-22T01:25:33.936Z,73.89
2022-08-22T01:28:19.146Z,73.85
2022-08-22T01:31:22.335Z,73.94
2022-08-22T01:34:06.823Z,74.03
2022-08-22T01:37:02.164Z,74.12
2022-08-22T01:39:34.703Z,74.17
2022-08-22T01:42:10.954Z,74.14
2022-08-22T01:44:40.278Z,74.42
2022-08-22T01:47:26.935Z,74.36
2022-08-22T01:50:32.567Z,74.44
2022-08-22T01:53:14.807Z,74.54
2022-08-22T01:55:52.440Z,74.67
2022-08-22T01:58:27.065Z,74.47
2022-08-22T02:01:20.288Z,74.55
2022-08-22T02:04:03.792Z,74.67
2022-08-22T02:06:39.910Z,74.99
2022-08-22T02:09:38.693Z,74.99
2022-08-22T02:12:17.210Z,75.04
2022-08-22T02:15:14.799Z,75.06
2022-08-22T02:18:05.186Z,75.26
2022-08-22T02:20:54.087Z,75.34
2022-08-22T02:23:35.727Z,75.37
2022-08-22T02:26:02.272Z,75.43
2022-08-22T02:29:01.198Z,75.52
2022-08-22T02:31:46.427Z,75.51
2022-08-22T02:34:19.167Z,75.45
2022-08-22T02:36:58.231Z,75.44
2022-08-22T02:39:33.593Z,75.21
2022-08-22T02:42:26.830Z,75.10
2022-08-22T02:45:19.762Z,75.26
2022-08-22T02:48:41.023Z,75.22
2022-08-22T02:51:26.010Z,75.18
2022-08-22T02:54:10.687Z,75.22
2022-08-22T02:56:54.564Z,75.44
2022-08-22T02:59:27.339Z,75.39
2022-08-22T03:01:55.784Z,75.47
2022-08-22T03:04:22.385Z,75.41
2022-08-22T03:07:32.778Z,75.44
2022-08-22T03:10:27.739Z,75.53
2022-08-22T03:13:03.453Z,75.56
2022-08-22T03:15:49.792Z,75.67
2022-08-22T03:18:28.500Z,75.80
2022-08-22T03:21:15.284Z,76.01
2022-08-22T03:24:01.607Z,76.01
2022-08-22T03:26:38.784Z,76.24
2022-08-22T03:29:15.507Z,76.18
2022-08-22T03:32:07.716Z,76.31
2022-08-22T03:34:35.730Z,76.12
2022-08-22T03:37:38.110Z,75.96
2022-08-22T03:40:20.060Z,75.92
2022-08-22T03:42:46.701Z,75.98
2022-08-22T03:45:32.069Z,76.13
2022-08-22T03:48:23.840Z,76.27
2022-08-22T03:51:21.056Z,76.40
2022-08-22T03:53:53.532Z,76.52
2022-08-22T03:57:00.581Z,76.67
2022-08-22T03:59:48.335Z,76.53
2022-08-22T04:02:43.541Z,76.52
2022-08-22T04:05:54.967Z,76.82
2022-08-22T04:08:37.738Z,76.87
2022-08-22T04:11:36.209Z,76.82
2022-08-22T04:14:17.153Z,76.98
2022-08-22T04:16:43.791Z,77.11
2022-08-22T04:19:38.765Z,77.31
2022-08-22T04:22:47.642Z,77.06
2022-08-22T04:25:31.066Z,77.05
2022-08-22T04:28:22.288Z,77.32
2022-08-22T04:30:55.856Z,77.47
2022-08-22T04:33:32.162Z,77.27
2022-08-22T04:36:21.392Z,77.77
2022-08-22T04:38:53.853Z,78.04
2022-08-22T04:41:24.884Z,77.83
2022-08-22T04:44:15.642Z,77.98
2022-08-22T04:46:49.602Z,77.94
2022-08-22T04:49:32.004Z,77.80
2022-08-22T04:52:29.865Z,77.72
2022-08-22T04:55:24.811Z,77.57
2022-08-22T04:58:02.238Z,77.64
2022-08-22T05:00:41.930Z,77.45
2022-08-22T05:03:14.683Z,77.59
2022-08-22T05:05:44.124Z,77.80
2022-08-22T05:08:15.031Z,77.81
2022-08-22T05:10:46.553Z,77.96
2022-08-22T05:13:21.665Z,78.18
2022-08-22T05:15:52.013Z,78.20
2022-08-22T05:18:29.576Z,77.98
2022-08-22T05:21:04.238Z,78.20
2022-08-22T05:23:39.598Z,77.88
2022-08-22T05:26:07.600Z,77.96
2022-08-22T05:28:56.495Z,78.03
2022-08-22T05:31:36.880Z,77.63
2022-08-22T05:34:09.674Z,77.26
2022-08-22T05:36:44.368Z,77.27
2022-08-22T05:39:25.417Z,77.72
2022-08-22T05:41:56.893Z,78.04
2022-08-22T05:44:27.264Z,77.82
2022-08-22T05:47:21.496Z,77.40
2022-08-22T05:50:07.193Z,76.58
2022-08-22T05:52:48.994Z,76.83
2022-08-22T05:55:25.666Z,76.84
2022-08-22T05:58:24.572Z,75.90
2022-08-22T06:00:59.200Z,75.72
2022-08-22T06:03:38.030Z,76.13
2022-08-22T06:06:13.770Z,76.02
2022-08-22T06:08:47.620Z,75.27
2022-08-22T06:11:37.838Z,75.60
2022-08-22T06:14:39.870Z,76.00
2022-08-22T06:17:21.826Z,75.69
2022-08-22T06:19:51.385Z,75.11
2022-08-22T06:22:43.773Z,75.36
2022-08-22T06:25:24.749Z,75.14
2022-08-22T06:27:52.938Z,75.66
2022-08-22T06:30:21.330Z,75.72
2022-08-22T06:32:59.753Z,76.02
2022-08-22T06:35:56.325Z,76.35
2022-08-22T06:38:34.894Z,76.03
2022-08-22T06:41:07.081Z,75.59
2022-08-22T06:43:39.328Z,76.10
2022-08-22T06:46:07.503Z,76.05
2022-08-22T06:48:35.900Z,75.68
2022-08-22T06:51:06.415Z,75.65
2022-08-22T06:53:47.754Z,75.50
2022-08-22T06:56:23.335Z,75.00
2022-08-22T06:58:56.192Z,75.07
2022-08-22T07:01:35.623Z,74.44
2022-08-22T07:04:09.130Z,74.29
2022-08-22T07:06:45.098Z,73.98
2022-08-22T07:09:23.652Z,73.84
2022-08-22T07:11:52.369Z,73.55
2022-08-22T07:14:29.772Z,73.99
2022-08-22T07:16:59.808Z,74.31
2022-08-22T07:19:42.064Z,73.96
2022-08-22T07:22:15.723Z,73.90
2022-08-22T07:24:50.590Z,72.03
2022-08-22T07:27:38.434Z,72.34
2022-08-22T07:30:09.977Z,71.57
2022-08-22T07:32:54.061Z,71.85
2022-08-22T07:35:25.751Z,71.51
2022-08-22T07:38:10.468Z,71.79
2022-08-22T07:41:01.567Z,71.23
2022-08-22T07:43:33.732Z,71.49
2022-08-22T07:46:28.527Z,71.33
2022-08-22T07:49:10.020Z,70.44
2022-08-22T07:51:51.294Z,69.50
2022-08-22T07:54:28.786Z,67.45
2022-08-22T07:57:07.361Z,67.67
2022-08-22T07:59:48.650Z,67.59
2022-08-22T08:02:17.714Z,67.93
2022-08-22T08:04:45.852Z,66.96
2022-08-22T08:07:16.108Z,64.51
2022-08-22T08:10:14.336Z,65.08
2022-08-22T08:13:01.848Z,64.26
2022-08-22T08:15:32.604Z,65.21
2022-08-22T08:18:05.494Z,64.25
2022-08-22T08:20:35.692Z,64.21
2022-08-22T08:23:08.830Z,64.97
2022-08-22T08:25:53.424Z,63.33
2022-08-22T08:28:38.063Z,64.09
2022-08-22T08:31:14.998Z,63.33
2022-08-22T08:33:45.035Z,64.82
2022-08-22T08:36:23.865Z,65.58
2022-08-22T08:39:01.644Z,65.22
2022-08-22T08:41:38.324Z,64.19
2022-08-22T08:44:17.914Z,64.53
2022-08-22T08:47:12.486Z,63.81
2022-08-22T08:49:57.490Z,63.98
2022-08-22T08:52:52.245Z,63.96
2022-08-22T08:55:44.002Z,63.58
2022-08-22T08:58:34.372Z,63.07
2022-08-22T09:01:28.704Z,64.12
2022-08-22T09:04:15.586Z,63.63
2022-08-22T09:07:06.127Z,63.53
2022-08-22T09:09:52.330Z,62.64
2022-08-22T09:12:54.417Z,62.30
2022-08-22T09:15:42.878Z,60.78
2022-08-22T09:18:41.959Z,60.42
2022-08-22T09:21:45.472Z,59.18
2022-08-22T09:24:41.334Z,57.87
2022-08-22T09:27:33.049Z,56.32
2022-08-22T09:30:31.479Z,53.05
2022-08-22T09:33:16.291Z,52.62
2022-08-22T09:36:05.198Z,53.34
2022-08-22T09:38:35.332Z,53.00
2022-08-22T09:41:14.476Z,54.51
2022-08-22T09:43:52.171Z,54.47
2022-08-22T09:46:31.556Z,55.47
2022-08-22T09:49:06.870Z,54.51
2022-08-22T09:51:51.071Z,54.60
2022-08-22T09:54:41.612Z,54.95
2022-08-22T09:57:22.714Z,54.71
2022-08-22T10:00:02.069Z,55.10
2022-08-22T10:02:43.637Z,54.85
2022-08-22T10:05:13.300Z,55.64
2022-08-22T10:08:27.996Z,55.27
2022-08-22T10:11:07.262Z,55.82
2022-08-22T10:13:57.882Z,56.06
2022-08-22T10:16:52.780Z,55.65
2022-08-22T10:19:44.537Z,53.71
2022-08-22T10:22:20.466Z,52.97
2022-08-22T10:24:53.866Z,51.79
2022-08-22T10:28:01.386Z,48.68
2022-08-22T10:31:17.793Z,48.03
2022-08-22T10:34:03.127Z,44.74
2022-08-22T10:36:33.276Z,44.17
2022-08-22T10:39:11.006Z,44.58
2022-08-22T10:41:38.659Z,43.73
2022-08-22T10:44:15.486Z,44.06
2022-08-22T10:46:54.321Z,44.52
2022-08-22T10:49:40.136Z,44.93
2022-08-22T10:52:31.948Z,46.10
2022-08-22T10:55:11.094Z,46.77
2022-08-22T10:58:00.602Z,47.48
2022-08-22T11:00:50.355Z,46.39
2022-08-22T11:03:21.906Z,45.06
2022-08-22T11:05:53.056Z,43.92
2022-08-22T11:09:00.489Z,41.12
2022-08-22T11:11:44.515Z,41.00
2022-08-22T11:14:26.847Z,38.52
2022-08-22T11:17:40.611Z,37.56
2022-08-22T11:20:19.858Z,36.97
2022-08-22T11:22:50.946Z,36.80
2022-08-22T11:25:53.754Z,39.75
2022-08-22T11:28:41.527Z,35.53
2022-08-22T11:31:27.666Z,34.47
2022-08-22T11:34:24.430Z,34.63
2022-08-22T11:37:15.617Z,35.34
2022-08-22T11:40:03.966Z,37.35
2022-08-22T11:42:49.271Z,37.26
2022-08-22T11:45:23.657Z,38.49
2022-08-22T11:48:02.610Z,38.97
2022-08-22T11:50:45.529Z,40.82
2022-08-22T11:53:34.181Z,39.12
2022-08-22T11:56:23.233Z,38.52
2022-08-22T11:59:07.373Z,38.53
2022-08-22T12:01:52.847Z,38.48
2022-08-22T12:04:33.890Z,38.02
2022-08-22T12:07:16.055Z,37.53
2022-08-22T12:09:50.782Z,40.04
2022-08-22T12:12:26.399Z,37.09
2022-08-22T12:15:11.339Z,38.00
2022-08-22T12:18:01.438Z,38.03
2022-08-22T12:21:25.721Z,37.62
2022-08-22T12:24:19.028Z,39.78
2022-08-22T12:26:53.226Z,38.54
2022-08-22T12:29:45.228Z,37.59
2022-08-22T12:32:35.744Z,37.98
2022-08-22T12:35:20.725Z,39.10
2022-08-22T12:38:29.122Z,38.86
2022-08-22T12:41:11.922Z,40.14
2022-08-22T12:43:49.465Z,39.49
2022-08-22T12:46:28.863Z,39.29
2022-08-22T12:49:33.959Z,40.21
2022-08-22T12:52:09.636Z,39.65
2022-08-22T12:55:12.197Z,38.73
2022-08-22T12:57:50.440Z,36.24
2022-08-22T13:00:26.692Z,35.01
2022-08-22T13:03:00.439Z,35.02
2022-08-22T13:05:31.399Z,35.96
2022-08-22T13:08:14.036Z,35.80
2022-08-22T13:10:52.725Z,36.38
2022-08-22T13:13:37.298Z,36.09
2022-08-22T13:16:13.039Z,36.91
2022-08-22T13:18:55.217Z,37.44
2022-08-22T13:21:34.864Z,36.77
2022-08-22T13:24:16.805Z,36.39
2022-08-22T13:26:52.127Z,36.93
2022-08-22T13:29:39.556Z,36.97
2022-08-22T13:32:23.635Z,36.41
2022-08-22T13:34:56.144Z,35.56
2022-08-22T13:37:30.052Z,37.41
2022-08-22T13:40:02.379Z,37.92
2022-08-22T13:42:32.308Z,38.81
2022-08-22T13:45:05.323Z,38.92
2022-08-22T13:47:35.872Z,38.51
2022-08-22T13:50:21.329Z,39.20
2022-08-22T13:52:56.236Z,37.96
2022-08-22T13:55:55.016Z,39.01
2022-08-22T13:58:35.040Z,38.31
2022-08-22T14:01:25.606Z,38.24
2022-08-22T14:04:28.676Z,39.06
2022-08-22T14:07:04.466Z,39.20
2022-08-22T14:09:45.263Z,39.78
2022-08-22T14:12:33.313Z,39.99
2022-08-22T14:15:10.834Z,39.05
2022-08-22T14:17:43.269Z,37.21
2022-08-22T14:20:43.898Z,34.85
2022-08-22T14:23:18.588Z,35.33
2022-08-22T14:25:45.696Z,34.64
2022-08-22T14:28:22.040Z,35.68
2022-08-22T14:31:13.437Z,36.08
2022-08-22T14:34:02.359Z,35.96
2022-08-22T14:36:48.760Z,35.62
2022-08-22T14:39:59.595Z,36.32
2022-08-22T14:42:44.405Z,37.35
2022-08-22T14:45:17.862Z,37.25
2022-08-22T14:48:29.630Z,35.87
2022-08-22T14:50:57.344Z,35.54
2022-08-22T14:53:30.637Z,35.67
2022-08-22T14:56:18.135Z,36.28
2022-08-22T14:58:47.910Z,37.67
2022-08-22T15:01:19.703Z,37.75
2022-08-22T15:04:00.724Z,37.85
2022-08-22T15:06:36.076Z,39.19
2022-08-22T15:09:09.269Z,39.90
2022-08-22T15:11:36.731Z,40.73
2022-08-22T15:14:12.787Z,41.88
2022-08-22T15:17:01.054Z,42.25
2022-08-22T15:19:45.870Z,40.62
2022-08-22T15:22:18.969Z,40.23
2022-08-22T15:25:08.511Z,40.57
2022-08-22T15:27:48.978Z,40.31
2022-08-22T15:30:20.498Z,41.32
2022-08-22T15:32:49.154Z,41.86
2022-08-22T15:35:31.611Z,43.29
2022-08-22T15:38:02.281Z,43.11
2022-08-22T15:40:31.745Z,43.75
2022-08-22T15:43:13.050Z,43.59
2022-08-22T15:45:42.283Z,43.57
2022-08-22T15:48:31.037Z,43.55
2022-08-22T15:51:01.746Z,42.52
2022-08-22T15:53:59.710Z,41.15
2022-08-22T15:56:29.490Z,41.42
2022-08-22T15:59:48.221Z,41.93
2022-08-22T16:02:35.209Z,42.94
2022-08-22T16:05:11.342Z,42.77
2022-08-22T16:07:42.803Z,44.19
2022-08-22T16:10:25.883Z,44.06
2022-08-22T16:13:15.801Z,43.43
2022-08-22T16:15:52.635Z,43.47
2022-08-22T16:18:34.651Z,43.60
2022-08-22T16:21:03.378Z,43.65
2022-08-22T16:23:49.969Z,43.33
2022-08-22T16:26:29.573Z,42.33
2022-08-22T16:28:59.372Z,41.67
2022-08-22T16:31:44.160Z,41.70
2022-08-22T16:34:16.724Z,42.06
2022-08-22T16:36:46.061Z,41.81
2022-08-22T16:39:22.066Z,41.54
2022-08-22T16:42:22.249Z,41.43
2022-08-22T16:44:57.987Z,40.87
2022-08-22T16:47:30.953Z,40.68
2022-08-22T16:50:04.287Z,39.84
2022-08-22T16:52:31.933Z,40.83
2022-08-22T16:55:03.237Z,42.41
2022-08-22T16:58:05.362Z,44.01
2022-08-22T17:00:49.802Z,42.53
2022-08-22T17:03:42.597Z,42.90
2022-08-22T17:06:38.513Z,43.08
2022-08-22T17:09:17.508Z,43.49
2022-08-22T17:12:05.855Z,44.87
2022-08-22T17:14:47.481Z,45.41
2022-08-22T17:17:17.162Z,45.83
2022-08-22T17:19:49.560Z,46.02
2022-08-22T17:22:29.038Z,45.98
2022-08-22T17:25:14.018Z,46.06
2022-08-22T17:27:44.869Z,46.10
2022-08-22T17:30:36.883Z,46.33
2022-08-22T17:33:12.387Z,46.37
2022-08-22T17:36:26.407Z,46.22
2022-08-22T17:39:15.333Z,46.50
2022-08-22T17:41:53.850Z,46.87
2022-08-22T17:44:42.144Z,46.50
2022-08-22T17:47:16.208Z,45.27
2022-08-22T17:49:42.757Z,45.33
2022-08-22T17:52:28.518Z,45.28
2022-08-22T17:55:05.443Z,45.01
2022-08-22T17:57:32.069Z,45.17
2022-08-22T18:00:14.395Z,45.09
2022-08-22T18:02:50.022Z,44.99
2022-08-22T18:05:24.945Z,45.36
2022-08-22T18:08:37.584Z,45.90
2022-08-22T18:11:08.876Z,46.69
2022-08-22T18:13:53.780Z,46.86
2022-08-22T18:16:20.504Z,46.92
2022-08-22T18:19:03.342Z,46.98
2022-08-22T18:21:35.409Z,46.86
2022-08-22T18:24:14.300Z,47.07
2022-08-22T18:27:30.045Z,47.21
2022-08-22T18:30:05.695Z,46.82
2022-08-22T18:32:52.563Z,47.42
2022-08-22T18:35:49.794Z,47.87
2022-08-22T18:38:30.028Z,48.14
2022-08-22T18:41:14.907Z,47.95
2022-08-22T18:43:48.307Z,48.10
2022-08-22T18:46:40.114Z,47.72
2022-08-22T18:49:19.772Z,47.78
2022-08-22T18:52:17.367Z,47.88
2022-08-22T18:55:15.059Z,48.34
2022-08-22T18:58:06.811Z,48.52
2022-08-22T19:00:46.328Z,48.86
2022-08-22T19:03:45.187Z,49.08
2022-08-22T19:06:28.359Z,49.15
2022-08-22T19:09:12.837Z,49.29
2022-08-22T19:12:02.783Z,49.20
2022-08-22T19:14:40.666Z,49.36
2022-08-22T19:17:28.691Z,49.65
2022-08-22T19:20:25.675Z,49.69
2022-08-22T19:23:32.691Z,49.58
2022-08-22T19:26:21.739Z,49.56
2022-08-22T19:28:49.371Z,49.65
2022-08-22T19:31:41.801Z,49.99
2022-08-22T19:34:29.493Z,49.93
2022-08-22T19:37:32.231Z,49.87
2022-08-22T19:40:09.887Z,49.92
2022-08-22T19:42:38.999Z,49.98
2022-08-22T19:45:18.525Z,50.27
2022-08-22T19:47:54.789Z,50.41
2022-08-22T19:50:21.340Z,50.07
2022-08-22T19:52:57.630Z,49.86
2022-08-22T19:55:39.206Z,49.98
2022-08-22T19:58:40.980Z,49.71
2022-08-22T20:01:35.199Z,49.38
2022-08-22T20:04:31.472Z,49.35
2022-08-22T20:07:43.210Z,49.21
2022-08-22T20:10:42.706Z,48.92
2022-08-22T20:13:19.573Z,49.05
2022-08-22T20:16:07.410Z,49.19
2022-08-22T20:19:06.980Z,48.95
2022-08-22T20:21:58.611Z,48.71
2022-08-22T20:24:59.759Z,48.85
2022-08-22T20:27:26.304Z,48.62
2022-08-22T20:30:12.198Z,48.70
2022-08-22T20:32:41.733Z,48.52
2022-08-22T20:35:16.963Z,48.60
2022-08-22T20:38:06.283Z,48.39
2022-08-22T20:40:55.679Z,48.78
2022-08-22T20:43:35.420Z,48.94
2022-08-22T20:46:24.019Z,49.01
2022-08-22T20:48:54.085Z,49.26
2022-08-22T20:51:25.064Z,49.56
2022-08-22T20:54:10.136Z,49.98
2022-08-22T20:56:53.198Z,50.51
2022-08-22T20:59:27.511Z,50.55
2022-08-22T21:02:15.158Z,50.63
2022-08-22T21:04:48.667Z,50.64
2022-08-22T21:07:41.391Z,50.88
2022-08-22T21:10:41.233Z,51.08
2022-08-22T21:13:14.118Z,51.33
2022-08-22T21:15:46.477Z,51.20
2022-08-22T21:18:24.003Z,51.50
2022-08-22T21:20:51.532Z,51.18
2022-08-22T21:23:19.524Z,51.04
2022-08-22T21:25:58.657Z,51.01
2022-08-22T21:28:35.057Z,50.95
2022-08-22T21:31:15.883Z,50.78
2022-08-22T21:33:45.249Z,50.79
2022-08-22T21:36:15.061Z,50.93
2022-08-22T21:38:48.907Z,51.04
2022-08-22T21:41:28.524Z,51.13
2022-08-22T21:43:55.477Z,51.46
2022-08-22T21:46:28.646Z,51.42
2022-08-22T21:49:04.841Z,51.50
2022-08-22T21:51:39.711Z,51.49
2022-08-22T21:54:22.061Z,51.60
2022-08-22T21:56:49.655Z,51.92
2022-08-22T21:59:50.981Z,52.13
2022-08-22T22:02:36.664Z,52.26
2022-08-22T22:05:16.293Z,51.93
2022-08-22T22:07:45.919Z,51.76
2022-08-22T22:10:17.204Z,51.82
2022-08-22T22:12:45.667Z,51.99
2022-08-22T22:15:16.530Z,51.84
2022-08-22T22:17:43.642Z,51.54
2022-08-22T22:20:12.012Z,51.43
2022-08-22T22:22:45.971Z,51.66
2022-08-22T22:25:40.573Z,51.42
2022-08-22T22:28:11.391Z,51.28
2022-08-22T22:30:38.263Z,51.91
2022-08-22T22:33:04.899Z,51.82
2022-08-22T22:35:32.412Z,51.66
2022-08-22T22:37:59.212Z,51.97
2022-08-22T22:40:27.150Z,52.35
2022-08-22T22:42:53.797Z,52.58
2022-08-22T22:45:20.379Z,52.69
2022-08-22T22:47:46.989Z,52.87
2022-08-22T22:50:13.780Z,53.02
2022-08-22T22:52:40.805Z,53.14
2022-08-22T22:55:09.071Z,53.41
2022-08-22T22:57:42.698Z,53.63
2022-08-22T23:00:11.958Z,53.91
2022-08-22T23:02:39.146Z,54.11
2022-08-22T23:05:07.175Z,54.28
2022-08-22T23:07:34.040Z,54.42
2022-08-22T23:10:01.468Z,54.57
2022-08-22T23:12:28.920Z,54.84
2022-08-22T23:14:55.682Z,54.82
2022-08-22T23:17:22.315Z,55.03
2022-08-22T23:19:51.082Z,55.36
2022-08-22T23:22:17.927Z,55.47
2022-08-22T23:24:44.831Z,55.77
2022-08-22T23:27:12.140Z,55.93
2022-08-22T23:29:43.555Z,56.12
2022-08-22T23:32:11.527Z,56.68
2022-08-22T23:34:44.095Z,57.07
2022-08-22T23:37:11.206Z,57.13
2022-08-22T23:39:40.671Z,56.94
2022-08-22T23:42:08.776Z,57.52
2022-08-22T23:44:37.349Z,57.15
2022-08-22T23:47:06.253Z,57.59
2022-08-22T23:49:33.691Z,57.73
2022-08-22T23:52:00.333Z,57.74
2022-08-22T23:54:27.019Z,58.16
2022-08-22T23:56:56.211Z,58.39
2022-08-22T23:59:30.066Z,58.22
